Time;durP1;ratioP1;P1;durP2;ratioP2;P2;SDS_P1;SDS_P2;PMS_P1;PMS_P2;Temp;Humidity;BMP_temperature;BMP_pressure;BME280_temperature;BME280_humidity;BME280_pressure;Samples;Min_cycle;Max_cycle;Signal;HPM_P1;HPM_P2
2023/04/05 00:01:33;;;;;;;7.55;4.28;;;;;;;;;;6278417;22;20023;-86
2023/04/05 00:04:08;;;;;;;9.32;4.05;;;;;;;;;;6340654;22;19995;-83
2023/04/05 00:06:36;;;;;;;6.95;3.50;;;;;;;;;;6341065;22;19999;-85
2023/04/05 00:09:05;;;;;;;7.20;4.45;;;;;;;;;;6340220;22;20043;-83
2023/04/05 00:11:38;;;;;;;6.15;3.92;;;;;;;;;;6367385;22;19994;-83
2023/04/05 00:14:07;;;;;;;5.05;3.60;;;;;;;;;;6340590;22;20010;-84
2023/04/05 00:29:32;;;;;;;4.40;3.30;;;;;;;;;;6312802;22;25047;-85
2023/04/05 00:32:06;;;;;;;3.63;3.00;;;;;;;;;;6336348;22;20003;-85
2023/04/05 00:50:14;;;;;;;2.25;2.05;;;;;;;;;;6282486;22;20011;-86
2023/04/05 00:52:46;;;;;;;4.47;2.22;;;;;;;;;;6340158;22;20014;-85
2023/04/05 00:55:15;;;;;;;2.45;2.05;;;;;;;;;;6314280;22;20011;-83
2023/04/05 00:57:48;;;;;;;3.78;2.13;;;;;;;;;;6365946;22;20030;-84
2023/04/05 01:00:20;;;;;;;3.25;2.33;;;;;;;;;;6366537;22;20009;-82
2023/04/05 01:02:52;;;;;;;2.47;2.20;;;;;;;;;;6365176;22;20022;-84
2023/04/05 01:05:27;;;;;;;3.28;2.13;;;;;;;;;;6338535;22;20013;-84
2023/04/05 01:08:07;;;;;;;4.30;2.58;;;;;;;;;;6366035;22;19994;-84
2023/04/05 01:10:44;;;;;;;3.97;2.25;;;;;;;;;;6365636;22;19990;-83
2023/04/05 01:13:10;;;;;;;5.50;2.50;;;;;;;;;;6366007;22;20067;-84
2023/04/05 01:15:39;;;;;;;4.50;2.20;;;;;;;;;;6338524;22;19991;-82
2023/04/05 01:18:14;;;;;;;2.40;2.17;;;;;;;;;;6364162;22;20002;-79
2023/04/05 01:20:45;;;;;;;3.20;2.15;;;;;;;;;;6314738;22;19987;-81
2023/04/05 01:23:37;;;;;;;5.15;2.85;;;;;;;;;;6365573;22;19994;-82
2023/04/05 01:26:17;;;;;;;3.20;2.50;;;;;;;;;;6338276;22;20018;-83
2023/04/05 01:28:46;;;;;;;2.53;2.20;;;;;;;;;;6339501;22;20017;-82
2023/04/05 01:31:33;;;;;;;2.35;2.15;;;;;;;;;;6366053;22;20026;-83
2023/04/05 01:34:06;;;;;;;3.42;2.13;;;;;;;;;;6365584;22;19983;-83
2023/04/05 01:36:47;;;;;;;3.33;2.50;;;;;;;;;;6366877;22;19995;-85
2023/04/05 02:10:25;;;;;;;3.45;2.20;;;;;;;;;;6314281;22;20006;-85
2023/04/05 02:12:55;;;;;;;2.25;1.95;;;;;;;;;;6342078;22;20028;-85
2023/04/05 02:15:27;;;;;;;3.95;2.00;;;;;;;;;;6368542;22;20011;-83
2023/04/05 02:18:00;;;;;;;3.35;2.30;;;;;;;;;;6342221;22;20002;-83
2023/04/05 02:20:30;;;;;;;2.60;2.30;;;;;;;;;;6368416;22;20078;-84
2023/04/05 02:23:03;;;;;;;2.47;2.17;;;;;;;;;;6368767;22;19995;-84
2023/04/05 02:30:41;;;;;;;3.72;1.92;;;;;;;;;;6237467;22;21224;-80
2023/04/05 02:33:09;;;;;;;3.15;1.95;;;;;;;;;;6336639;22;20015;-84
2023/04/05 03:43:11;;;;;;;2.28;2.00;;;;;;;;;;6361840;22;20023;-82
2023/04/05 03:45:43;;;;;;;2.42;2.10;;;;;;;;;;6336671;22;20011;-83
2023/04/05 03:48:19;;;;;;;2.20;2.00;;;;;;;;;;6364378;22;19983;-81
2023/04/05 04:03:44;;;;;;;3.13;2.40;;;;;;;;;;6267391;22;20022;-76
2023/04/05 04:06:10;;;;;;;2.95;2.33;;;;;;;;;;6363170;22;20017;-81
2023/04/05 04:08:39;;;;;;;4.68;2.50;;;;;;;;;;6340546;22;19999;-85
2023/04/05 04:11:13;;;;;;;3.22;2.40;;;;;;;;;;6367807;22;20022;-84
2023/04/05 04:21:34;;;;;;;4.65;2.95;;;;;;;;;;6355121;22;20033;-82
2023/04/05 04:24:03;;;;;;;5.10;2.72;;;;;;;;;;6341424;22;20051;-85
2023/04/05 04:26:39;;;;;;;3.13;2.70;;;;;;;;;;6367867;22;19998;-84
2023/04/05 05:47:00;;;;;;;2.17;1.98;;;;;;;;;;6315087;22;20010;-87
2023/04/05 06:07:03;;;;;;;2.88;1.90;;;;;;;;;;6234855;22;20083;-83
2023/04/05 06:09:32;;;;;;;2.63;2.03;;;;;;;;;;6275987;22;20000;-86
2023/04/05 06:11:59;;;;;;;3.13;2.00;;;;;;;;;;6274185;22;19999;-85
2023/04/05 06:14:29;;;;;;;2.00;1.80;;;;;;;;;;6249132;22;20059;-84
2023/04/05 06:35:12;;;;;;;1.70;1.60;;;;;;;;;;6323631;22;20002;-84
2023/04/05 06:40:16;;;;;;;2.30;1.90;;;;;;;;;;6270289;22;20060;-84
2023/04/05 07:03:31;;;;;;;2.58;2.00;;;;;;;;;;6201976;22;20016;-84
2023/04/05 07:06:01;;;;;;;2.25;2.00;;;;;;;;;;6354834;22;20003;-84
2023/04/05 07:08:28;;;;;;;2.33;1.88;;;;;;;;;;6368729;22;20002;-82
2023/04/05 07:16:06;;;;;;;6.93;2.85;;;;;;;;;;6240201;22;20011;-85
2023/04/05 07:21:08;;;;;;;4.40;2.05;;;;;;;;;;6239256;22;20012;-84
2023/04/05 07:24:05;;;;;;;5.13;2.10;;;;;;;;;;6336043;22;20007;-84
2023/04/05 07:26:38;;;;;;;1.95;1.75;;;;;;;;;;6321545;22;20011;-83
2023/04/05 07:29:13;;;;;;;2.88;2.00;;;;;;;;;;6339335;22;20007;-83
2023/04/05 07:31:40;;;;;;;2.95;2.65;;;;;;;;;;6367058;22;20010;-82
2023/04/05 07:36:41;;;;;;;4.68;2.20;;;;;;;;;;6325662;22;20015;-82
2023/04/05 07:49:36;;;;;;;2.50;2.00;;;;;;;;;;6302201;22;20068;-83
2023/04/05 07:52:05;;;;;;;6.38;2.47;;;;;;;;;;6335464;22;19990;-84
2023/04/05 07:54:42;;;;;;;4.90;2.33;;;;;;;;;;6309705;22;19992;-82
2023/04/05 08:10:56;;;;;;;5.13;2.20;;;;;;;;;;6272971;22;19931;-82
2023/04/05 08:16:04;;;;;;;4.30;2.95;;;;;;;;;;6342695;22;20007;-85
2023/04/05 08:18:37;;;;;;;4.97;2.90;;;;;;;;;;6341001;22;20009;-83
2023/04/05 08:21:06;;;;;;;7.35;2.85;;;;;;;;;;6366735;22;19979;-83
2023/04/05 08:23:36;;;;;;;5.03;3.15;;;;;;;;;;6367110;22;19995;-82
2023/04/05 08:26:08;;;;;;;2.17;1.88;;;;;;;;;;6339311;22;19999;-85
2023/04/05 08:28:40;;;;;;;8.38;2.40;;;;;;;;;;6365933;22;20003;-83
2023/04/05 08:33:42;;;;;;;4.93;2.53;;;;;;;;;;6313850;22;20034;-83
2023/04/05 08:38:52;;;;;;;2.83;2.40;;;;;;;;;;6325211;22;20014;-77
2023/04/05 08:41:21;;;;;;;3.10;2.25;;;;;;;;;;6332645;22;20017;-83
2023/04/05 08:43:55;;;;;;;2.35;2.15;;;;;;;;;;6277316;22;20023;-83
2023/04/05 08:46:22;;;;;;;7.32;3.25;;;;;;;;;;6300629;22;20002;-80
2023/04/05 08:48:48;;;;;;;4.35;2.50;;;;;;;;;;6300201;22;20149;-77
2023/04/05 08:51:18;;;;;;;3.45;2.30;;;;;;;;;;6326663;22;20051;-84
2023/04/05 08:53:44;;;;;;;3.80;2.42;;;;;;;;;;6299239;22;20007;-89
2023/04/05 08:56:11;;;;;;;5.68;2.85;;;;;;;;;;6295246;22;20232;-85
2023/04/05 08:58:38;;;;;;;5.05;3.38;;;;;;;;;;6316752;22;20014;-77
2023/04/05 09:01:05;;;;;;;6.32;2.50;;;;;;;;;;6295406;22;20007;-84
2023/04/05 09:03:36;;;;;;;3.40;2.40;;;;;;;;;;6297276;22;20022;-80
2023/04/05 09:06:06;;;;;;;3.28;2.50;;;;;;;;;;6322782;22;19995;-80
2023/04/05 09:08:32;;;;;;;3.17;2.70;;;;;;;;;;6322948;22;20015;-80
2023/04/05 09:10:58;;;;;;;5.05;2.72;;;;;;;;;;6289908;22;20027;-78
2023/04/05 09:13:24;;;;;;;4.95;2.88;;;;;;;;;;6294497;22;20022;-87
2023/04/05 09:15:51;;;;;;;6.28;3.17;;;;;;;;;;6323301;22;19991;-87
2023/04/05 09:18:17;;;;;;;6.90;3.22;;;;;;;;;;6321860;22;20029;-82
2023/04/05 09:20:43;;;;;;;4.68;2.67;;;;;;;;;;6321039;22;20058;-81
2023/04/05 09:23:09;;;;;;;5.40;2.50;;;;;;;;;;6296281;22;20011;-80
2023/04/05 09:25:39;;;;;;;4.80;2.45;;;;;;;;;;6322609;22;20022;-77
2023/04/05 09:28:09;;;;;;;4.55;2.35;;;;;;;;;;6322182;22;20073;-85
2023/04/05 09:30:36;;;;;;;3.85;2.45;;;;;;;;;;6319739;22;20000;-77
2023/04/05 09:33:03;;;;;;;3.83;2.50;;;;;;;;;;6292626;22;20481;-83
2023/04/05 09:35:30;;;;;;;3.58;2.47;;;;;;;;;;6295243;22;20014;-79
2023/04/05 09:38:00;;;;;;;3.03;2.42;;;;;;;;;;6296107;22;20015;-79
2023/04/05 09:40:45;;;;;;;3.33;2.45;;;;;;;;;;6293010;22;20323;-80
2023/04/05 09:43:13;;;;;;;10.77;4.75;;;;;;;;;;6320522;22;20372;-85
2023/04/05 09:45:44;;;;;;;3.55;2.58;;;;;;;;;;6269019;22;20022;-80
2023/04/05 09:48:12;;;;;;;4.95;2.85;;;;;;;;;;6322066;22;20007;-84
2023/04/05 09:50:38;;;;;;;4.00;2.80;;;;;;;;;;6322936;22;20008;-87
2023/04/05 09:53:06;;;;;;;3.55;2.70;;;;;;;;;;6319559;22;20011;-85
2023/04/05 09:55:32;;;;;;;4.05;2.33;;;;;;;;;;6294336;22;20007;-83
2023/04/05 09:57:59;;;;;;;2.63;2.17;;;;;;;;;;6323090;22;19999;-87
2023/04/05 10:00:25;;;;;;;2.33;2.13;;;;;;;;;;6320982;22;20008;-83
2023/04/05 10:02:55;;;;;;;4.30;2.95;;;;;;;;;;6291184;22;20097;-89
2023/04/05 10:05:26;;;;;;;2.78;2.38;;;;;;;;;;6263114;22;20034;-86
2023/04/05 10:07:54;;;;;;;2.80;2.28;;;;;;;;;;6289273;22;20021;-85
2023/04/05 10:10:21;;;;;;;5.07;2.75;;;;;;;;;;6317519;22;20004;-89
2023/04/05 10:12:47;;;;;;;5.60;3.35;;;;;;;;;;6285241;22;20355;-87
2023/04/05 10:15:13;;;;;;;4.53;2.88;;;;;;;;;;6286108;22;20003;-85
2023/04/05 10:17:52;;;;;;;23.58;7.47;;;;;;;;;;6287507;22;19999;-91
2023/04/05 10:20:22;;;;;;;7.78;3.65;;;;;;;;;;6286671;22;20015;-82
2023/04/05 10:22:55;;;;;;;4.78;3.00;;;;;;;;;;6313318;22;20017;-82
2023/04/05 10:25:40;;;;;;;10.63;5.38;;;;;;;;;;6315690;22;20010;-86
2023/04/05 10:28:10;;;;;;;7.93;3.90;;;;;;;;;;6287305;22;19992;-88
2023/04/05 10:30:40;;;;;;;4.15;2.60;;;;;;;;;;6315661;22;19995;-83
2023/04/05 10:33:24;;;;;;;4.25;2.97;;;;;;;;;;6288400;22;20352;-91
2023/04/05 10:35:53;;;;;;;2.90;2.47;;;;;;;;;;6315818;22;20407;-91
2023/04/05 10:38:22;;;;;;;3.53;2.50;;;;;;;;;;6288701;22;20230;-89
2023/04/05 10:40:49;;;;;;;3.65;2.17;;;;;;;;;;6287624;22;20039;-85
2023/04/05 10:43:18;;;;;;;3.65;2.40;;;;;;;;;;6287466;22;20079;-79
2023/04/05 10:45:46;;;;;;;3.65;2.40;;;;;;;;;;6312626;22;20008;-83
2023/04/05 10:48:28;;;;;;;3.50;2.78;;;;;;;;;;6314713;22;19999;-90
2023/04/05 10:50:55;;;;;;;4.20;2.45;;;;;;;;;;6286164;22;20070;-86
2023/04/05 10:53:21;;;;;;;4.03;2.75;;;;;;;;;;6316252;22;19999;-88
2023/04/05 10:55:48;;;;;;;3.17;2.33;;;;;;;;;;6313012;22;19999;-84
2023/04/05 10:58:15;;;;;;;6.03;2.72;;;;;;;;;;6288878;22;20011;-87
2023/04/05 11:00:42;;;;;;;5.00;2.50;;;;;;;;;;6312936;22;20007;-81
2023/04/05 11:03:08;;;;;;;6.35;2.40;;;;;;;;;;6288597;22;20073;-88
2023/04/05 11:05:34;;;;;;;3.45;2.55;;;;;;;;;;6314859;22;20007;-82
2023/04/05 11:08:08;;;;;;;15.13;3.28;;;;;;;;;;6289696;22;20003;-90
2023/04/05 11:10:38;;;;;;;4.53;2.38;;;;;;;;;;6288333;22;20657;-87
2023/04/05 11:13:05;;;;;;;3.75;2.28;;;;;;;;;;6316235;22;20006;-86
2023/04/05 11:15:32;;;;;;;4.28;2.60;;;;;;;;;;6284096;22;20011;-81
2023/04/05 11:18:16;;;;;;;10.98;3.72;;;;;;;;;;6314100;22;20480;-85
2023/04/05 11:20:44;;;;;;;8.75;3.70;;;;;;;;;;6285992;22;20008;-85
2023/04/05 11:23:10;;;;;;;5.03;3.63;;;;;;;;;;6286316;22;20019;-88
2023/04/05 11:25:38;;;;;;;34.63;10.57;;;;;;;;;;6287336;22;20011;-79
2023/04/05 11:28:05;;;;;;;7.95;3.90;;;;;;;;;;6310542;22;20064;-90
2023/04/05 11:30:47;;;;;;;108.35;19.45;;;;;;;;;;6311939;22;20003;-86
2023/04/05 11:33:32;;;;;;;11.90;6.20;;;;;;;;;;6313227;22;19999;-88
2023/04/05 11:36:04;;;;;;;5.80;3.50;;;;;;;;;;6312965;22;20003;-86
2023/04/05 11:38:30;;;;;;;11.13;4.85;;;;;;;;;;6284211;22;20079;-85
2023/04/05 11:41:06;;;;;;;10.55;3.63;;;;;;;;;;6282797;22;20316;-80
2023/04/05 11:43:37;;;;;;;6.65;3.65;;;;;;;;;;6283312;22;20042;-83
2023/04/05 11:46:06;;;;;;;5.95;3.40;;;;;;;;;;6311294;22;19999;-82
2023/04/05 11:48:33;;;;;;;24.80;6.85;;;;;;;;;;6310041;22;20010;-83
2023/04/05 11:50:59;;;;;;;9.25;4.22;;;;;;;;;;6283164;22;20007;-87
2023/04/05 11:53:26;;;;;;;9.55;4.25;;;;;;;;;;6312121;22;20007;-89
2023/04/05 11:55:54;;;;;;;9.35;3.85;;;;;;;;;;6283151;22;20049;-88
2023/04/05 11:58:24;;;;;;;5.53;2.70;;;;;;;;;;6312571;22;20029;-84
2023/04/05 12:00:58;;;;;;;5.20;2.50;;;;;;;;;;6311172;22;20082;-90
2023/04/05 12:03:24;;;;;;;4.55;2.28;;;;;;;;;;6282798;22;20003;-78
2023/04/05 12:05:52;;;;;;;2.95;2.30;;;;;;;;;;6284281;22;20388;-89
2023/04/05 12:08:19;;;;;;;6.18;3.45;;;;;;;;;;6286476;22;20006;-86
2023/04/05 12:11:01;;;;;;;2.88;2.30;;;;;;;;;;6284639;22;20030;-87
2023/04/05 12:13:28;;;;;;;7.90;2.85;;;;;;;;;;6313374;22;20003;-88
2023/04/05 12:15:54;;;;;;;7.00;2.85;;;;;;;;;;6284733;22;20041;-85
2023/04/05 12:18:21;;;;;;;3.58;2.75;;;;;;;;;;6281381;22;20013;-85
2023/04/05 12:20:47;;;;;;;15.27;5.47;;;;;;;;;;6285842;22;20008;-92
2023/04/05 12:23:13;;;;;;;4.30;2.60;;;;;;;;;;6311289;22;20747;-85
2023/04/05 12:25:41;;;;;;;3.30;2.40;;;;;;;;;;6313321;22;20051;-84
2023/04/05 12:28:07;;;;;;;3.60;2.40;;;;;;;;;;6313485;22;19999;-85
2023/04/05 12:30:36;;;;;;;2.95;2.28;;;;;;;;;;6313106;22;20048;-89
2023/04/05 12:33:09;;;;;;;3.78;2.35;;;;;;;;;;6255030;22;20017;-92
2023/04/05 12:35:35;;;;;;;4.95;2.28;;;;;;;;;;6312261;22;20003;-79
2023/04/05 12:38:04;;;;;;;4.75;2.40;;;;;;;;;;6281668;22;20022;-85
2023/04/05 12:40:31;;;;;;;4.85;2.30;;;;;;;;;;6313396;22;20054;-81
2023/04/05 12:43:04;;;;;;;3.25;2.00;;;;;;;;;;6281568;22;20012;-81
2023/04/05 12:45:38;;;;;;;4.15;2.20;;;;;;;;;;6313485;22;20338;-85
2023/04/05 12:48:07;;;;;;;3.17;2.00;;;;;;;;;;6283591;22;20026;-83
2023/04/05 12:50:33;;;;;;;2.70;2.10;;;;;;;;;;6283334;22;20497;-86
2023/04/05 12:53:00;;;;;;;3.70;2.03;;;;;;;;;;6284785;22;20036;-82
2023/04/05 12:55:27;;;;;;;5.40;2.55;;;;;;;;;;6315739;22;20451;-87
2023/04/05 12:57:54;;;;;;;3.40;2.00;;;;;;;;;;6311552;22;20007;-84
2023/04/05 13:00:25;;;;;;;4.65;2.33;;;;;;;;;;6282005;22;20007;-91
2023/04/05 13:02:55;;;;;;;4.82;2.20;;;;;;;;;;6313384;22;20010;-84
2023/04/05 13:05:26;;;;;;;4.80;2.00;;;;;;;;;;6310322;22;20003;-90
2023/04/05 13:07:53;;;;;;;4.03;2.53;;;;;;;;;;6284952;22;20007;-90
2023/04/05 13:10:19;;;;;;;2.22;2.00;;;;;;;;;;6312442;22;20010;-87
2023/04/05 13:12:46;;;;;;;4.95;2.60;;;;;;;;;;6312073;22;20003;-89
2023/04/05 13:15:13;;;;;;;3.88;2.15;;;;;;;;;;6312784;22;20394;-85
2023/04/05 13:17:40;;;;;;;6.22;2.47;;;;;;;;;;6313044;22;20010;-83
2023/04/05 13:20:06;;;;;;;7.20;2.40;;;;;;;;;;6312640;22;20065;-86
2023/04/05 13:22:33;;;;;;;4.05;2.53;;;;;;;;;;6313264;22;20029;-88
2023/04/05 13:24:59;;;;;;;5.55;2.75;;;;;;;;;;6286685;22;20021;-90
2023/04/05 13:27:25;;;;;;;4.25;2.50;;;;;;;;;;6311900;22;19996;-82
2023/04/05 13:29:51;;;;;;;3.70;2.63;;;;;;;;;;6284515;22;20037;-91
2023/04/05 13:32:17;;;;;;;1.80;1.70;;;;;;;;;;6285095;22;20012;-86
2023/04/05 13:34:44;;;;;;;6.97;2.20;;;;;;;;;;6283362;22;20094;-82
2023/04/05 13:37:10;;;;;;;5.90;2.67;;;;;;;;;;6283821;22;20087;-89
2023/04/05 13:39:36;;;;;;;2.63;2.30;;;;;;;;;;6311746;22;20003;-88
2023/04/05 13:42:02;;;;;;;3.78;2.20;;;;;;;;;;6312753;22;20008;-88
2023/04/05 13:44:28;;;;;;;3.00;1.90;;;;;;;;;;6310707;22;20003;-82
2023/04/05 13:46:54;;;;;;;7.25;2.72;;;;;;;;;;6313242;22;20011;-89
2023/04/05 13:49:20;;;;;;;2.22;2.03;;;;;;;;;;6311006;22;20431;-83
2023/04/05 13:51:46;;;;;;;5.00;2.50;;;;;;;;;;6311696;22;20411;-88
2023/04/05 13:54:12;;;;;;;3.08;2.10;;;;;;;;;;6314855;22;20082;-88
2023/04/05 13:56:39;;;;;;;3.80;2.45;;;;;;;;;;6312169;22;20515;-82
2023/04/05 13:59:05;;;;;;;3.33;2.13;;;;;;;;;;6285524;22;20011;-87
2023/04/05 14:01:32;;;;;;;2.88;2.00;;;;;;;;;;6286931;22;19997;-89
2023/04/05 14:03:59;;;;;;;3.35;2.05;;;;;;;;;;6312999;22;20003;-80
2023/04/05 14:06:26;;;;;;;2.92;1.83;;;;;;;;;;6285066;22;20015;-85
2023/04/05 14:08:54;;;;;;;2.83;1.88;;;;;;;;;;6286661;22;20014;-90
2023/04/05 14:11:23;;;;;;;3.30;2.20;;;;;;;;;;6314619;22;20010;-78
2023/04/05 14:13:52;;;;;;;1.85;1.73;;;;;;;;;;6285253;22;20003;-81
2023/04/05 14:16:18;;;;;;;4.10;1.90;;;;;;;;;;6314478;22;20102;-83
2023/04/05 14:18:45;;;;;;;3.55;2.15;;;;;;;;;;6314405;22;20432;-80
2023/04/05 14:21:11;;;;;;;3.95;2.50;;;;;;;;;;6286158;22;20000;-89
2023/04/05 14:23:37;;;;;;;1.80;1.67;;;;;;;;;;6288407;22;19991;-85
2023/04/05 14:26:03;;;;;;;2.30;1.80;;;;;;;;;;6290208;22;20070;-90
2023/04/05 14:28:29;;;;;;;3.17;1.75;;;;;;;;;;6315981;22;20000;-83
2023/04/05 14:30:57;;;;;;;3.63;2.10;;;;;;;;;;6311468;22;20003;-86
2023/04/05 14:33:23;;;;;;;2.42;2.10;;;;;;;;;;6313411;22;20003;-90
2023/04/05 14:35:50;;;;;;;3.30;2.10;;;;;;;;;;6315298;22;20014;-90
2023/04/05 14:38:16;;;;;;;2.30;2.10;;;;;;;;;;6313755;22;20008;-85
2023/04/05 14:40:42;;;;;;;2.42;2.17;;;;;;;;;;6288114;22;20447;-86
2023/04/05 14:43:08;;;;;;;5.75;2.25;;;;;;;;;;6314103;22;20022;-85
2023/04/05 14:45:34;;;;;;;2.83;2.28;;;;;;;;;;6289284;22;20016;-82
2023/04/05 14:48:00;;;;;;;2.97;2.40;;;;;;;;;;6288020;22;20011;-91
2023/04/05 14:50:30;;;;;;;8.32;4.22;;;;;;;;;;6289286;22;20029;-86
2023/04/05 14:52:56;;;;;;;104.35;62.25;;;;;;;;;;6285956;22;20016;-79
2023/04/05 14:55:22;;;;;;;109.47;59.80;;;;;;;;;;6311334;22;20069;-87
2023/04/05 14:57:48;;;;;;;132.32;80.63;;;;;;;;;;6315036;22;20029;-85
2023/04/05 15:00:14;;;;;;;60.88;37.58;;;;;;;;;;6290473;22;20109;-82
2023/04/05 15:02:41;;;;;;;13.73;8.60;;;;;;;;;;6292024;22;20008;-87
2023/04/05 15:05:07;;;;;;;14.00;8.57;;;;;;;;;;6317541;22;19980;-78
2023/04/05 15:07:33;;;;;;;12.90;6.65;;;;;;;;;;6293511;22;20004;-87
2023/04/05 15:09:59;;;;;;;12.05;6.90;;;;;;;;;;6320482;22;19995;-80
2023/04/05 15:12:25;;;;;;;27.52;19.23;;;;;;;;;;6297045;22;20007;-82
2023/04/05 15:14:53;;;;;;;15.50;9.60;;;;;;;;;;6292690;22;20007;-81
2023/04/05 15:17:19;;;;;;;14.73;7.53;;;;;;;;;;6318038;22;20000;-86
2023/04/05 15:19:45;;;;;;;12.65;8.40;;;;;;;;;;6323082;22;20003;-82
2023/04/05 15:22:12;;;;;;;9.57;4.60;;;;;;;;;;6323392;22;20011;-79
2023/04/05 15:24:39;;;;;;;12.02;6.38;;;;;;;;;;6297827;22;20011;-85
2023/04/05 15:27:05;;;;;;;9.07;5.03;;;;;;;;;;6295342;22;20017;-84
2023/04/05 15:29:32;;;;;;;20.80;9.07;;;;;;;;;;6322352;22;20102;-81
2023/04/05 15:31:58;;;;;;;33.10;10.65;;;;;;;;;;6293326;22;20015;-81
2023/04/05 15:34:25;;;;;;;14.38;6.20;;;;;;;;;;6294034;22;20030;-86
2023/04/05 15:36:52;;;;;;;19.30;7.88;;;;;;;;;;6292328;22;20067;-84
2023/04/05 15:39:18;;;;;;;9.40;4.32;;;;;;;;;;6293756;22;20003;-87
2023/04/05 15:41:45;;;;;;;13.75;4.88;;;;;;;;;;6294084;22;20019;-82
2023/04/05 15:44:11;;;;;;;21.33;10.82;;;;;;;;;;6317281;22;19995;-84
2023/04/05 15:46:38;;;;;;;13.35;6.18;;;;;;;;;;6321243;22;19999;-85
2023/04/05 15:49:04;;;;;;;9.48;3.85;;;;;;;;;;6319418;22;20078;-89
2023/04/05 15:51:30;;;;;;;11.23;3.70;;;;;;;;;;6292738;22;20007;-83
2023/04/05 15:53:56;;;;;;;9.45;3.20;;;;;;;;;;6293656;22;20007;-78
2023/04/05 15:56:22;;;;;;;9.55;3.63;;;;;;;;;;6289627;22;20007;-88
2023/04/05 15:58:49;;;;;;;9.95;3.58;;;;;;;;;;6289689;22;20003;-87
2023/04/05 16:01:15;;;;;;;6.55;3.10;;;;;;;;;;6319542;22;20003;-81
2023/04/05 16:03:41;;;;;;;8.57;3.72;;;;;;;;;;6289883;22;20023;-83
2023/04/05 16:06:07;;;;;;;16.52;4.18;;;;;;;;;;6291964;22;20006;-86
2023/04/05 16:08:34;;;;;;;15.48;5.90;;;;;;;;;;6320283;22;20007;-87
2023/04/05 16:11:00;;;;;;;29.90;12.18;;;;;;;;;;6318327;22;20003;-88
2023/04/05 16:13:27;;;;;;;20.00;8.50;;;;;;;;;;6316331;22;20060;-87
2023/04/05 16:15:53;;;;;;;18.98;9.20;;;;;;;;;;6263942;22;20436;-84
2023/04/05 16:18:20;;;;;;;21.85;8.35;;;;;;;;;;6283790;22;20011;-91
2023/04/05 16:20:46;;;;;;;24.13;9.13;;;;;;;;;;6313360;22;20030;-79
2023/04/05 16:23:13;;;;;;;19.80;8.82;;;;;;;;;;6286556;22;20035;-85
2023/04/05 16:25:39;;;;;;;14.52;5.80;;;;;;;;;;6287080;22;20049;-89
2023/04/05 16:28:06;;;;;;;14.68;4.63;;;;;;;;;;6314670;22;20010;-90
2023/04/05 16:30:32;;;;;;;11.35;3.83;;;;;;;;;;6313064;22;20060;-83
2023/04/05 16:32:58;;;;;;;10.23;3.33;;;;;;;;;;6312397;22;19999;-85
2023/04/05 16:35:25;;;;;;;17.50;7.75;;;;;;;;;;6284830;22;20007;-78
2023/04/05 16:37:51;;;;;;;14.23;6.00;;;;;;;;;;6285287;22;20063;-82
2023/04/05 16:40:17;;;;;;;12.93;5.72;;;;;;;;;;6288589;22;20057;-83
2023/04/05 16:42:43;;;;;;;63.80;34.03;;;;;;;;;;6285581;22;20011;-79
2023/04/05 16:45:10;;;;;;;21.48;12.27;;;;;;;;;;6287012;22;20007;-83
2023/04/05 16:47:36;;;;;;;17.98;9.30;;;;;;;;;;6283201;22;20017;-82
2023/04/05 16:50:03;;;;;;;14.95;5.78;;;;;;;;;;6315784;22;20039;-80
2023/04/05 16:52:29;;;;;;;16.38;5.35;;;;;;;;;;6287438;22;20022;-90
2023/04/05 16:54:57;;;;;;;14.73;6.93;;;;;;;;;;6286142;22;20011;-84
2023/04/05 16:57:23;;;;;;;11.13;4.00;;;;;;;;;;6288832;22;20444;-91
2023/04/05 16:59:49;;;;;;;11.43;4.57;;;;;;;;;;6316069;22;20003;-89
2023/04/05 17:02:16;;;;;;;12.50;3.83;;;;;;;;;;6287533;22;20250;-80
2023/04/05 17:04:43;;;;;;;10.73;3.10;;;;;;;;;;6314355;22;20437;-86
2023/04/05 17:07:09;;;;;;;13.02;3.10;;;;;;;;;;6315715;22;20003;-90
2023/04/05 17:09:35;;;;;;;9.70;3.72;;;;;;;;;;6314350;22;20022;-81
2023/04/05 17:12:02;;;;;;;11.05;3.30;;;;;;;;;;6286715;22;20140;-89
2023/04/05 17:14:29;;;;;;;10.63;4.03;;;;;;;;;;6288333;22;19995;-89
2023/04/05 17:16:56;;;;;;;34.30;13.05;;;;;;;;;;6287460;22;20072;-79
2023/04/05 17:19:22;;;;;;;25.13;9.25;;;;;;;;;;6314699;22;20004;-80
2023/04/05 17:21:48;;;;;;;12.65;4.65;;;;;;;;;;6285584;22;20022;-89
2023/04/05 17:24:16;;;;;;;9.90;4.85;;;;;;;;;;6310943;22;20082;-78
2023/04/05 17:26:42;;;;;;;14.98;6.68;;;;;;;;;;6316411;22;20000;-83
2023/04/05 17:29:08;;;;;;;8.70;3.75;;;;;;;;;;6289108;22;20003;-85
2023/04/05 17:31:35;;;;;;;7.68;3.00;;;;;;;;;;6317676;22;20008;-82
2023/04/05 17:34:01;;;;;;;8.07;3.05;;;;;;;;;;6289171;22;20003;-79
2023/04/05 17:36:28;;;;;;;8.85;3.28;;;;;;;;;;6290113;22;20059;-89
2023/04/05 17:38:54;;;;;;;11.18;3.78;;;;;;;;;;6289214;22;20054;-81
2023/04/05 17:41:22;;;;;;;11.35;4.05;;;;;;;;;;6317130;22;20317;-84
2023/04/05 17:43:48;;;;;;;11.82;4.05;;;;;;;;;;6289856;22;20361;-89
2023/04/05 17:46:15;;;;;;;7.13;3.35;;;;;;;;;;6315152;22;20007;-88
2023/04/05 17:48:41;;;;;;;6.57;3.10;;;;;;;;;;6286537;22;20003;-82
2023/04/05 17:51:08;;;;;;;15.52;4.70;;;;;;;;;;6290587;22;20029;-91
2023/04/05 17:53:34;;;;;;;11.30;3.42;;;;;;;;;;6291574;22;19995;-90
2023/04/05 17:56:01;;;;;;;17.58;4.55;;;;;;;;;;6291051;22;20015;-80
2023/04/05 17:58:29;;;;;;;9.45;3.47;;;;;;;;;;6314708;22;20004;-89
2023/04/05 18:00:55;;;;;;;8.00;3.55;;;;;;;;;;6289464;22;20003;-81
2023/04/05 18:03:22;;;;;;;6.63;4.32;;;;;;;;;;6289026;22;20010;-81
2023/04/05 18:05:51;;;;;;;6.90;3.15;;;;;;;;;;6316623;22;19996;-81
2023/04/05 18:08:18;;;;;;;10.18;3.10;;;;;;;;;;6316708;22;20534;-90
2023/04/05 18:10:44;;;;;;;7.30;3.53;;;;;;;;;;6291657;22;20053;-87
2023/04/05 18:13:10;;;;;;;10.57;4.55;;;;;;;;;;6291624;22;20007;-87
2023/04/05 18:15:37;;;;;;;14.52;4.22;;;;;;;;;;6316193;22;20003;-88
2023/04/05 18:18:04;;;;;;;12.18;4.05;;;;;;;;;;6290163;22;20243;-89
2023/04/05 18:20:30;;;;;;;10.85;4.97;;;;;;;;;;6265480;22;20082;-83
2023/04/05 18:22:57;;;;;;;6.40;3.60;;;;;;;;;;6314730;22;20055;-78
2023/04/05 18:25:23;;;;;;;12.65;4.82;;;;;;;;;;6290740;22;20452;-90
2023/04/05 18:27:50;;;;;;;7.57;3.20;;;;;;;;;;6291349;22;20007;-86
2023/04/05 18:30:16;;;;;;;13.48;4.75;;;;;;;;;;6291260;22;20015;-78
2023/04/05 18:32:43;;;;;;;10.65;4.22;;;;;;;;;;6292020;22;20003;-83
2023/04/05 18:35:09;;;;;;;9.07;4.03;;;;;;;;;;6318573;22;20007;-89
2023/04/05 18:37:36;;;;;;;13.73;4.32;;;;;;;;;;6323168;22;20023;-78
2023/04/05 18:40:05;;;;;;;10.40;4.05;;;;;;;;;;6298191;22;20007;-87
2023/04/05 18:42:31;;;;;;;10.05;4.03;;;;;;;;;;6326634;22;20002;-79
2023/04/05 18:45:00;;;;;;;12.20;4.15;;;;;;;;;;6298028;22;19983;-81
2023/04/05 18:47:26;;;;;;;12.35;4.00;;;;;;;;;;6297468;22;20019;-78
2023/04/05 18:49:53;;;;;;;11.32;4.30;;;;;;;;;;6324466;22;20011;-78
2023/04/05 18:52:24;;;;;;;12.25;6.00;;;;;;;;;;6328297;22;20345;-88
2023/04/05 18:54:50;;;;;;;15.00;5.93;;;;;;;;;;6275459;22;20007;-86
2023/04/05 18:57:16;;;;;;;15.57;4.72;;;;;;;;;;6327081;22;20033;-79
2023/04/05 18:59:43;;;;;;;12.60;4.43;;;;;;;;;;6300201;22;20057;-82
2023/04/05 19:02:09;;;;;;;8.63;3.70;;;;;;;;;;6327871;22;20002;-79
2023/04/05 19:04:35;;;;;;;10.38;4.07;;;;;;;;;;6300793;22;20018;-78
2023/04/05 19:07:01;;;;;;;11.68;4.20;;;;;;;;;;6302246;22;20011;-85
2023/04/05 19:09:27;;;;;;;11.68;3.75;;;;;;;;;;6328393;22;20034;-84
2023/04/05 19:11:53;;;;;;;14.13;7.35;;;;;;;;;;6299226;22;20009;-78
2023/04/05 19:14:19;;;;;;;9.05;4.55;;;;;;;;;;6302303;22;20070;-82
2023/04/05 19:16:46;;;;;;;8.05;4.60;;;;;;;;;;6330148;22;20007;-78
2023/04/05 19:19:12;;;;;;;5.70;4.35;;;;;;;;;;6329127;22;20003;-82
2023/04/05 19:21:38;;;;;;;7.53;5.07;;;;;;;;;;6326162;22;20007;-80
2023/04/05 19:24:04;;;;;;;9.60;3.92;;;;;;;;;;6328117;22;20007;-77
2023/04/05 19:26:31;;;;;;;6.15;3.67;;;;;;;;;;6299596;22;20007;-79
2023/04/05 19:28:57;;;;;;;3.65;2.50;;;;;;;;;;6302549;22;20014;-79
2023/04/05 19:31:25;;;;;;;2.95;2.63;;;;;;;;;;6301303;22;19999;-79
2023/04/05 19:33:51;;;;;;;2.85;2.42;;;;;;;;;;6302762;22;20012;-78
2023/04/05 19:36:17;;;;;;;3.88;2.30;;;;;;;;;;6330718;22;19983;-78
2023/04/05 19:38:43;;;;;;;6.40;2.47;;;;;;;;;;6304343;22;20034;-78
2023/04/05 19:41:09;;;;;;;3.72;2.38;;;;;;;;;;6319318;22;20015;-81
2023/04/05 19:43:38;;;;;;;5.35;2.70;;;;;;;;;;6317676;22;20003;-82
2023/04/05 19:46:17;;;;;;;11.60;4.88;;;;;;;;;;6291763;22;20003;-81
2023/04/05 19:48:45;;;;;;;11.35;5.13;;;;;;;;;;6323082;22;20022;-83
2023/04/05 19:51:23;;;;;;;7.95;4.40;;;;;;;;;;6320578;22;20004;-82
2023/04/05 19:53:50;;;;;;;8.85;3.92;;;;;;;;;;6321925;22;20007;-82
2023/04/05 19:56:18;;;;;;;7.97;3.92;;;;;;;;;;6323410;22;20000;-82
2023/04/05 19:58:50;;;;;;;8.90;3.90;;;;;;;;;;6323031;22;20006;-81
2023/04/05 20:01:30;;;;;;;10.85;4.68;;;;;;;;;;6294707;22;20003;-81
2023/04/05 20:03:56;;;;;;;4.18;3.20;;;;;;;;;;6326249;22;20013;-81
2023/04/05 20:06:23;;;;;;;3.10;2.15;;;;;;;;;;6322839;22;19999;-81
2023/04/05 20:08:52;;;;;;;3.97;2.80;;;;;;;;;;6289446;22;20491;-80
2023/04/05 20:11:21;;;;;;;6.90;3.97;;;;;;;;;;6319668;22;19995;-80
2023/04/05 20:13:54;;;;;;;4.88;2.80;;;;;;;;;;6318396;22;20056;-78
2023/04/05 20:16:27;;;;;;;5.05;2.70;;;;;;;;;;6317537;22;19996;-79
2023/04/05 20:18:56;;;;;;;9.77;4.70;;;;;;;;;;6315352;22;20043;-80